Time;durP1;ratioP1;P1;durP2;ratioP2;P2;SDS_P1;SDS_P2;PMS_P1;PMS_P2;Temp;Humidity;BMP_temperature;BMP_pressure;BME280_temperature;BME280_humidity;BME280_pressure;Samples;Min_cycle;Max_cycle;Signal;HPM_P1;HPM_P2
2021/12/13 00:02:00;;;;;;;;;29.00;22.50;;;;;10.98;84.48;102038.88;5035036;28;47323;-81
2021/12/13 00:04:35;;;;;;;;;32.50;26.75;;;;;11.01;84.09;102035.41;5035376;28;45691;-81
2021/12/13 00:07:31;;;;;;;;;27.50;24.50;;;;;10.97;83.62;102029.13;5035965;28;45441;-79
2021/12/13 00:09:59;;;;;;;;;25.50;23.50;;;;;10.99;84.11;102027.47;5033562;28;45715;-79
2021/12/13 00:12:34;;;;;;;;;27.00;26.25;;;;;11.06;83.64;102036.41;5036021;28;45287;-78
2021/12/13 00:15:04;;;;;;;;;26.00;24.75;;;;;11.09;83.87;102032.13;5037665;28;45248;-78
2021/12/13 00:17:46;;;;;;;;;19.25;19.00;;;;;10.93;83.03;102005.31;5019450;28;45328;-79
2021/12/13 00:20:27;;;;;;;;;23.25;20.00;;;;;11.04;82.78;102023.19;5029630;28;45456;-78
2021/12/13 00:22:54;;;;;;;;;26.00;20.75;;;;;11.03;83.94;102018.75;5038880;28;45459;-78
2021/12/13 00:25:23;;;;;;;;;23.50;20.75;;;;;10.84;84.28;101988.38;5039119;28;45384;-79
2021/12/13 00:27:55;;;;;;;;;13.50;11.50;;;;;10.93;84.07;102005.31;5038068;28;45406;-78
2021/12/13 00:30:26;;;;;;;;;23.75;21.25;;;;;10.97;83.71;102013.31;5038693;28;45249;-78
2021/12/13 00:33:08;;;;;;;;;29.50;25.00;;;;;10.76;83.66;101982.03;5030458;28;46204;-80
2021/12/13 00:35:52;;;;;;;;;22.50;20.00;;;;;10.92;84.08;102016.72;5038610;28;45460;-79
2021/12/13 00:38:22;;;;;;;;;17.25;17.25;;;;;10.91;83.94;102015.81;5039561;28;45611;-80
2021/12/13 00:40:53;;;;;;;;;25.50;22.00;;;;;10.92;84.54;102014.06;5038705;28;45347;-79
2021/12/13 00:43:27;;;;;;;;;21.50;18.75;;;;;10.93;83.54;102013.22;5039102;28;45428;-80
2021/12/13 00:45:57;;;;;;;;;19.25;17.75;;;;;10.92;84.21;102001.78;5038074;28;45239;-80
2021/12/13 00:48:25;;;;;;;;;17.50;14.75;;;;;10.91;83.00;102013.19;5037614;28;45359;-80
2021/12/13 00:51:06;;;;;;;;;19.75;19.25;;;;;10.91;83.01;102007.03;5037565;28;45433;-81
2021/12/13 00:53:38;;;;;;;;;17.00;17.00;;;;;10.89;83.72;102011.34;5038796;28;46268;-79
2021/12/13 00:56:45;;;;;;;;;24.00;22.25;;;;;10.90;83.53;102006.13;5038524;28;45424;-81
2021/12/13 00:59:21;;;;;;;;;18.50;15.25;;;;;10.92;83.35;102011.44;4997001;28;45487;-79
2021/12/13 01:02:00;;;;;;;;;13.50;13.00;;;;;10.92;83.82;102016.72;4996968;28;45379;-79
2021/12/13 01:04:45;;;;;;;;;16.75;15.75;;;;;10.82;83.06;102000.66;4979543;28;46638;-78
2021/12/13 01:07:42;;;;;;;;;23.50;19.25;;;;;10.95;83.57;102015.03;4982438;28;45472;-78
2021/12/13 01:10:41;;;;;;;;;21.50;19.75;;;;;10.93;83.08;102022.00;4936456;28;45604;-80
2021/12/13 01:13:15;;;;;;;;;24.75;20.75;;;;;10.84;83.01;101996.31;4938433;28;45360;-79
2021/12/13 01:15:49;;;;;;;;;22.25;16.50;;;;;10.96;83.54;102015.91;4938056;28;46205;-81
2021/12/13 01:18:32;;;;;;;;;18.25;15.00;;;;;10.96;83.38;102013.28;4936803;28;45517;-79
2021/12/13 01:21:27;;;;;;;;;22.75;19.75;;;;;10.93;83.16;102011.47;4937880;28;45422;-80
2021/12/13 01:26:46;;;;;;;;;20.75;17.75;;;;;10.86;83.45;102004.25;4919722;28;46609;-79
2021/12/13 01:29:20;;;;;;;;;22.00;20.50;;;;;10.92;83.27;102014.06;4930985;28;45330;-78
2021/12/13 01:31:53;;;;;;;;;18.50;16.25;;;;;10.84;83.81;101993.66;4913512;28;45406;-78
2021/12/13 01:34:20;;;;;;;;;20.25;17.00;;;;;10.82;83.27;101974.28;4899301;29;46128;-79
2021/12/13 01:36:58;;;;;;;;;15.75;14.50;;;;;10.96;84.07;101998.34;4920528;28;46087;-78
2021/12/13 01:39:26;;;;;;;;;23.25;23.25;;;;;11.00;83.82;102008.16;4937328;28;45388;-79
2021/12/13 01:41:58;;;;;;;;;24.00;20.25;;;;;11.00;82.78;102007.25;4954059;28;45413;-79
2021/12/13 01:44:28;;;;;;;;;18.50;18.50;;;;;11.02;83.15;102009.06;4937259;28;45395;-79
2021/12/13 01:46:58;;;;;;;;;23.25;22.00;;;;;11.01;83.29;102007.28;4964885;28;46239;-80
2021/12/13 01:49:44;;;;;;;;;19.50;18.75;;;;;10.77;83.70;101977.63;5015621;28;45481;-79
2021/12/13 01:52:24;;;;;;;;;23.75;20.50;;;;;11.00;83.84;102018.69;5013821;28;45556;-79
2021/12/13 01:54:52;;;;;;;;;23.00;21.25;;;;;10.94;83.09;102001.81;5012678;28;45431;-79
2021/12/13 01:59:57;;;;;;;;;20.25;17.50;;;;;10.96;83.47;102019.44;5014035;28;45460;-79
2021/12/13 02:02:42;;;;;;;;;21.50;21.50;;;;;10.96;83.47;102016.81;5014154;28;45321;-78
2021/12/13 02:05:32;;;;;;;;;21.25;21.25;;;;;11.00;83.64;102007.25;5035312;28;45436;-79
2021/12/13 02:08:07;;;;;;;;;21.75;17.75;;;;;11.01;84.26;102006.41;5006491;28;47218;-79
2021/12/13 02:10:38;;;;;;;;;26.75;19.00;;;;;10.97;83.71;102015.97;5003659;28;45442;-79
2021/12/13 02:13:20;;;;;;;;;16.50;14.25;;;;;10.97;83.45;102015.06;5003301;28;45450;-79
2021/12/13 02:18:37;;;;;;;;;14.00;12.00;;;;;10.94;83.75;102020.28;5008023;28;45553;-79
2021/12/13 02:21:37;;;;;;;;;23.00;21.00;;;;;10.90;84.31;102015.78;5004863;28;45574;-80
2021/12/13 02:24:08;;;;;;;;;22.75;19.50;;;;;10.89;84.15;102016.59;4934539;28;45484;-79
2021/12/13 02:26:38;;;;;;;;;25.75;22.00;;;;;10.83;83.34;102014.72;4935295;28;45648;-79
2021/12/13 02:29:19;;;;;;;;;28.25;21.25;;;;;10.78;83.61;102009.31;4934658;28;46139;-79
2021/12/13 02:31:45;;;;;;;;;24.00;21.50;;;;;10.78;83.69;102011.94;4935174;28;45482;-79
2021/12/13 02:34:18;;;;;;;;;21.00;21.00;;;;;10.87;84.90;102029.75;4936027;28;45461;-78
2021/12/13 02:36:53;;;;;;;;;20.25;18.00;;;;;10.82;84.18;102024.38;4937388;28;45624;-78
2021/12/13 02:39:28;;;;;;;;;24.50;19.75;;;;;10.87;84.18;102019.22;4937684;28;47025;-79
2021/12/13 02:41:55;;;;;;;;;25.75;22.00;;;;;10.80;84.79;102006.75;4939285;28;45814;-78
2021/12/13 02:44:23;;;;;;;;;27.50;23.25;;;;;10.87;84.32;102027.13;4945724;28;45793;-80
2021/12/13 02:46:51;;;;;;;;;24.25;23.00;;;;;10.85;84.31;102013.00;4974170;28;45472;-79
2021/12/13 02:49:18;;;;;;;;;21.25;19.50;;;;;10.69;84.65;101987.09;4973209;28;45560;-79
2021/12/13 02:51:54;;;;;;;;;27.25;23.50;;;;;10.72;84.09;102001.25;4974437;28;45474;-79
2021/12/13 02:54:29;;;;;;;;;27.75;24.25;;;;;10.87;84.07;102021.84;4984632;28;45563;-78
2021/12/13 02:57:06;;;;;;;;;25.00;19.75;;;;;10.86;83.94;102020.06;4990176;28;45508;-80
2021/12/13 02:59:34;;;;;;;;;26.50;22.00;;;;;10.66;84.05;101987.91;5039685;28;46343;-77
2021/12/13 03:02:15;;;;;;;;;29.75;20.25;;;;;10.79;84.42;102008.44;5036784;28;45283;-79
2021/12/13 03:04:40;;;;;;;;;21.25;18.25;;;;;10.84;84.22;102005.97;5034024;28;45444;-79
2021/12/13 03:07:24;;;;;;;;;23.25;20.00;;;;;10.84;84.46;102012.13;5036399;28;45485;-80
2021/12/13 03:09:53;;;;;;;;;23.25;19.75;;;;;10.75;84.78;101996.06;5035850;28;46746;-78
2021/12/13 03:12:21;;;;;;;;;24.75;21.50;;;;;10.66;84.69;101982.63;5035126;28;45422;-78
2021/12/13 03:14:56;;;;;;;;;21.00;18.75;;;;;10.79;84.46;102011.09;5034451;28;45410;-79
2021/12/13 03:17:31;;;;;;;;;23.75;19.75;;;;;10.82;84.50;102018.22;5034106;28;45529;-79
2021/12/13 03:20:25;;;;;;;;;18.25;16.75;;;;;10.82;83.74;102013.81;5034511;28;46453;-79
2021/12/13 03:23:35;;;;;;;;;20.00;16.00;;;;;10.83;84.49;102012.97;5034231;28;45519;-79
2021/12/13 03:26:23;;;;;;;;;18.25;14.50;;;;;10.83;83.41;102012.97;5034420;28;45585;-78
2021/12/13 03:29:07;;;;;;;;;20.25;17.50;;;;;10.80;84.17;102007.63;5033638;28;45440;-78
2021/12/13 03:31:39;;;;;;;;;22.25;19.75;;;;;10.55;84.03;101970.91;5034326;28;45485;-79
2021/12/13 03:34:37;;;;;;;;;23.25;19.00;;;;;10.66;84.40;101990.53;5033942;28;45428;-78
2021/12/13 03:37:09;;;;;;;;;19.50;17.00;;;;;10.72;84.38;102003.00;5012203;28;45654;-79
2021/12/13 03:39:42;;;;;;;;;20.50;18.50;;;;;10.70;84.24;102005.59;5013036;28;45725;-78
2021/12/13 03:42:15;;;;;;;;;23.00;21.25;;;;;10.68;84.06;102001.13;5011594;28;45545;-78
2021/12/13 03:44:47;;;;;;;;;23.00;17.75;;;;;10.60;83.87;101986.84;5012294;28;45570;-79
2021/12/13 03:47:35;;;;;;;;;20.75;16.00;;;;;10.56;84.26;101978.84;5010633;28;45476;-78
2021/12/13 03:50:09;;;;;;;;;21.75;17.25;;;;;10.52;84.12;101971.72;5014786;28;45489;-78
2021/12/13 03:52:37;;;;;;;;;24.00;22.00;;;;;10.66;84.35;101993.16;5015956;28;46785;-78
2021/12/13 03:55:05;;;;;;;;;23.50;20.25;;;;;10.68;84.40;101991.47;5015488;28;45617;-79
2021/12/13 03:57:31;;;;;;;;;16.25;16.25;;;;;10.53;84.58;101946.28;5004518;28;45491;-81
2021/12/13 03:59:59;;;;;;;;;21.75;19.50;;;;;10.69;84.65;101981.81;5015663;28;45506;-81
2021/12/13 04:02:34;;;;;;;;;20.50;16.00;;;;;10.69;84.09;101980.06;5015653;28;45410;-80
2021/12/13 04:05:11;;;;;;;;;26.25;24.25;;;;;10.59;84.18;101971.88;4999175;28;45737;-81
2021/12/13 04:07:46;;;;;;;;;22.25;20.00;;;;;10.66;84.18;101981.75;5016367;28;45276;-81
2021/12/13 04:10:15;;;;;;;;;19.50;19.00;;;;;10.66;83.92;101987.91;5018083;28;45436;-81
2021/12/13 04:12:48;;;;;;;;;25.50;22.75;;;;;10.68;84.52;101993.22;5020985;28;46269;-81
2021/12/13 04:15:23;;;;;;;;;22.50;19.75;;;;;10.52;84.95;101965.56;5038355;28;45455;-78
2021/12/13 04:18:02;;;;;;;;;25.25;23.00;;;;;10.60;84.60;101973.66;5036830;28;45614;-80
2021/12/13 04:20:33;;;;;;;;;20.25;20.25;;;;;10.70;84.64;101987.16;5037636;28;45420;-79
2021/12/13 04:23:06;;;;;;;;;20.50;19.25;;;;;10.64;83.71;101975.53;5038531;28;45746;-79
2021/12/13 04:25:37;;;;;;;;;16.00;15.75;;;;;10.71;84.26;101990.69;5037295;28;45421;-79
2021/12/13 04:28:10;;;;;;;;;22.75;20.50;;;;;10.71;84.10;101994.19;5036919;28;45608;-79
2021/12/13 04:30:41;;;;;;;;;18.25;17.75;;;;;10.70;83.81;101991.50;5037498;28;45527;-80
2021/12/13 04:33:25;;;;;;;;;20.75;20.25;;;;;10.41;83.26;101944.19;5034295;28;46477;-80
2021/12/13 04:35:56;;;;;;;;;13.50;11.25;;;;;10.27;83.52;101913.94;5038027;28;45407;-79
2021/12/13 04:38:26;;;;;;;;;20.50;18.75;;;;;10.66;83.15;101990.53;5037581;28;45425;-79
2021/12/13 04:40:54;;;;;;;;;21.00;18.75;;;;;10.59;84.18;101982.41;5037605;28;45434;-79
2021/12/13 04:43:21;;;;;;;;;25.50;19.00;;;;;10.65;83.96;101993.13;5038447;28;47186;-79
2021/12/13 04:45:53;;;;;;;;;17.50;16.50;;;;;10.51;82.98;101971.66;5037849;28;45572;-79
2021/12/13 04:48:22;;;;;;;;;18.00;14.75;;;;;10.60;83.56;101997.38;5037836;28;45500;-78
2021/12/13 04:51:13;;;;;;;;;19.75;19.75;;;;;10.54;83.57;101995.47;5044845;28;45373;-78
2021/12/13 04:53:49;;;;;;;;;17.25;14.50;;;;;10.56;83.98;102002.56;5004497;28;47388;-78
2021/12/13 04:56:25;;;;;;;;;20.25;19.25;;;;;10.61;83.92;102004.41;5007788;28;45850;-79
2021/12/13 04:58:55;;;;;;;;;22.50;18.50;;;;;10.32;83.53;101962.34;4999920;28;45467;-79
2021/12/13 05:01:22;;;;;;;;;23.75;22.00;;;;;10.34;84.28;101965.06;5001325;28;45507;-80
2021/12/13 05:03:59;;;;;;;;;20.50;20.50;;;;;10.47;83.98;102011.97;5002029;28;46099;-78
2021/12/13 05:06:29;;;;;;;;;19.25;18.50;;;;;10.46;84.20;102005.81;4995654;28;45476;-78
2021/12/13 05:08:58;;;;;;;;;12.75;12.50;;;;;10.43;84.18;102005.72;4996164;28;45746;-79
2021/12/13 05:11:32;;;;;;;;;23.50;21.00;;;;;10.15;84.26;101968.88;4996629;28;45310;-79
2021/12/13 05:13:58;;;;;;;;;20.25;18.25;;;;;10.37;83.68;102008.19;4977453;28;46156;-79
2021/12/13 05:16:46;;;;;;;;;19.00;18.50;;;;;10.21;84.74;102009.44;4990386;28;46874;-77
2021/12/13 05:19:16;;;;;;;;;21.25;20.50;;;;;10.09;85.37;101988.00;4996527;28;45416;-81
2021/12/13 05:21:46;;;;;;;;;16.75;16.75;;;;;10.26;84.65;102020.16;4996494;28;45484;-80
2021/12/13 05:24:24;;;;;;;;;19.25;17.50;;;;;10.15;84.94;102011.91;4997006;28;46374;-80
2021/12/13 05:26:54;;;;;;;;;17.00;17.00;;;;;10.18;85.01;102017.25;4996427;28;45270;-79
2021/12/13 05:29:33;;;;;;;;;19.50;19.00;;;;;10.20;85.20;102020.81;4994707;28;45447;-79
2021/12/13 05:32:08;;;;;;;;;21.25;18.50;;;;;10.14;84.93;102010.09;5038710;28;45433;-81
2021/12/13 05:34:43;;;;;;;;;23.50;20.25;;;;;10.23;84.71;102022.66;5038468;28;46978;-78
2021/12/13 05:37:09;;;;;;;;;20.75;17.50;;;;;10.20;84.97;102006.75;5038269;28;45362;-81
2021/12/13 05:39:37;;;;;;;;;15.50;15.50;;;;;10.30;84.61;102022.00;5037624;28;45292;-80
2021/12/13 05:42:10;;;;;;;;;21.75;16.00;;;;;10.31;83.89;102022.91;5036092;28;45324;-80
2021/12/13 05:44:42;;;;;;;;;19.75;16.50;;;;;10.30;83.37;102022.00;5037735;28;46016;-80
2021/12/13 05:47:18;;;;;;;;;21.50;15.75;;;;;10.30;83.79;102018.47;5037800;28;45383;-80
2021/12/13 05:49:45;;;;;;;;;18.25;13.75;;;;;10.30;83.83;102011.47;5036602;28;45381;-80
2021/12/13 05:52:33;;;;;;;;;22.50;19.00;;;;;10.31;83.70;102017.63;5037948;28;45456;-80
2021/12/13 05:55:04;;;;;;;;;20.75;16.50;;;;;10.23;83.29;102007.75;5032525;28;48360;-79
2021/12/13 05:57:36;;;;;;;;;17.25;14.75;;;;;10.31;82.88;102022.91;5033890;28;45417;-78
2021/12/13 06:00:20;;;;;;;;;18.00;14.75;;;;;10.19;82.94;101989.19;5034894;28;45530;-79
2021/12/13 06:03:34;;;;;;;;;19.25;18.75;;;;;10.32;82.88;102007.13;5033681;28;45585;-79
2021/12/13 06:06:19;;;;;;;;;16.00;16.00;;;;;10.31;82.85;102023.78;4995247;28;45877;-77
2021/12/13 06:08:48;;;;;;;;;17.25;13.25;;;;;10.21;82.74;102011.16;4994433;28;45406;-78
2021/12/13 06:11:21;;;;;;;;;17.25;14.75;;;;;10.20;83.84;102019.94;5014510;28;45486;-79
2021/12/13 06:13:46;;;;;;;;;13.00;13.00;;;;;10.22;83.61;102015.63;5001062;28;45502;-78
2021/12/13 06:16:24;;;;;;;;;15.50;12.50;;;;;10.19;82.85;102010.25;5007667;28;47240;-79
2021/12/13 06:19:06;;;;;;;;;14.00;14.00;;;;;10.12;83.04;101997.72;5000798;28;45460;-78
2021/12/13 06:21:40;;;;;;;;;13.75;13.75;;;;;10.16;83.47;102020.69;4992975;28;45531;-78
2021/12/13 06:24:05;;;;;;;;;18.50;18.50;;;;;10.09;83.32;102016.09;4997857;28;45378;-79
2021/12/13 06:26:32;;;;;;;;;19.00;16.25;;;;;10.14;83.14;102015.34;4996133;28;45696;-79
2021/12/13 06:29:04;;;;;;;;;17.25;16.00;;;;;9.99;83.28;101993.84;4993046;28;46806;-80
2021/12/13 06:31:42;;;;;;;;;13.00;13.00;;;;;10.16;83.33;102023.34;4993139;28;45586;-77
2021/12/13 06:34:14;;;;;;;;;12.00;12.00;;;;;10.18;82.41;102016.34;5020452;28;45280;-78
2021/12/13 06:36:42;;;;;;;;;9.75;9.75;;;;;10.17;82.28;102019.84;5022791;28;45964;-79
2021/12/13 06:39:17;;;;;;;;;15.50;13.25;;;;;10.03;82.23;101990.47;5036822;28;45492;-79
2021/12/13 06:41:58;;;;;;;;;13.25;13.25;;;;;10.18;81.47;102022.50;5035755;28;45401;-79
2021/12/13 06:44:34;;;;;;;;;13.25;12.75;;;;;10.22;82.09;102026.16;5043655;28;45362;-78
2021/12/13 06:47:11;;;;;;;;;12.75;12.25;;;;;10.24;81.84;102033.28;5034872;28;46278;-79
2021/12/13 06:49:43;;;;;;;;;12.75;12.50;;;;;10.10;81.39;102007.34;5034661;28;45415;-76
2021/12/13 06:52:37;;;;;;;;;16.25;16.25;;;;;10.13;82.09;102007.41;5035673;28;45450;-79
2021/12/13 06:55:11;;;;;;;;;16.75;15.75;;;;;10.28;82.31;102031.63;5053583;28;45377;-78
2021/12/13 06:57:47;;;;;;;;;15.50;13.25;;;;;10.17;82.14;102023.38;5044416;28;46402;-78
2021/12/13 07:00:22;;;;;;;;;14.00;11.25;;;;;10.03;81.55;102001.00;5034289;28;45473;-76
2021/12/13 07:02:59;;;;;;;;;12.50;12.50;;;;;9.90;81.72;101970.78;5051164;28;45324;-76
2021/12/13 07:05:30;;;;;;;;;15.25;15.00;;;;;10.06;82.01;101998.47;5034134;28;45530;-76
2021/12/13 07:08:21;;;;;;;;;12.75;11.75;;;;;10.02;82.05;102006.22;5035376;28;46368;-77
2021/12/13 07:10:52;;;;;;;;;16.25;14.75;;;;;10.09;82.01;102022.25;4992968;28;45407;-77
2021/12/13 07:13:20;;;;;;;;;10.75;10.75;;;;;10.10;81.72;102025.78;4993079;28;45274;-77
2021/12/13 07:15:57;;;;;;;;;11.00;11.00;;;;;10.08;82.79;102025.72;4993648;28;45499;-76
2021/12/13 07:18:37;;;;;;;;;12.25;11.25;;;;;10.11;81.78;102031.06;4993295;28;46179;-78
2021/12/13 07:21:08;;;;;;;;;10.00;9.00;;;;;10.05;82.13;102025.66;4988419;28;45316;-78
2021/12/13 07:23:54;;;;;;;;;8.50;7.25;;;;;9.93;83.02;102027.88;4976139;28;45325;-76
2021/12/13 07:26:40;;;;;;;;;12.00;10.00;;;;;9.91;82.78;102017.31;4995723;28;45647;-75
2021/12/13 07:29:19;;;;;;;;;8.00;8.00;;;;;9.94;82.62;102025.28;4996869;28;45422;-76
2021/12/13 07:32:02;;;;;;;;;6.25;6.25;;;;;10.01;82.22;102021.13;4997279;28;45503;-77
2021/12/13 07:34:28;;;;;;;;;3.25;2.00;;;;;9.91;82.20;102019.94;4997139;28;45415;-75
2021/12/13 07:36:58;;;;;;;;;4.50;4.50;;;;;9.68;82.71;101992.94;5005911;28;45404;-76
2021/12/13 07:39:29;;;;;;;;;6.00;6.00;;;;;9.82;83.28;102035.44;4989475;28;46178;-76
2021/12/13 07:41:59;;;;;;;;;3.00;3.00;;;;;9.90;82.48;102048.84;4992722;28;45658;-75
2021/12/13 07:44:30;;;;;;;;;3.00;3.00;;;;;9.81;82.76;102045.94;4997036;28;45221;-74
2021/12/13 07:47:17;;;;;;;;;6.00;5.50;;;;;9.90;83.11;102046.22;4975243;28;1173944;-73
2021/12/13 07:49:57;;;;;;;;;4.25;4.25;;;;;9.94;82.19;102034.94;5038990;28;46287;-72
2021/12/13 07:52:34;;;;;;;;;5.00;4.00;;;;;10.00;81.99;102025.50;5038453;28;45641;-76
2021/12/13 07:55:19;;;;;;;;;4.75;2.50;;;;;9.88;82.32;101995.28;5037009;28;46963;-75
2021/12/13 07:57:46;;;;;;;;;4.75;4.75;;;;;10.09;81.77;102032.78;5031710;28;45685;-76
2021/12/13 08:00:18;;;;;;;;;4.50;4.50;;;;;10.16;81.64;102026.84;5038747;28;47049;-77
2021/12/13 08:03:04;;;;;;;;;4.00;4.00;;;;;10.19;81.28;102037.47;5041088;28;45236;-71
2021/12/13 08:05:38;;;;;;;;;4.75;4.00;;;;;10.06;81.42;102022.16;5038819;28;45465;-75
2021/12/13 08:08:06;;;;;;;;;6.75;6.25;;;;;10.15;80.91;102039.97;5038944;28;45216;-76
2021/12/13 08:10:38;;;;;;;;;6.00;6.00;;;;;10.03;81.49;102006.25;5039541;28;45330;-75
2021/12/13 08:13:06;;;;;;;;;3.00;3.00;;;;;10.20;81.50;102031.34;5039076;28;45334;-74
2021/12/13 08:15:46;;;;;;;;;5.00;3.50;;;;;10.27;81.15;102032.47;5035554;28;46565;-72
2021/12/13 08:18:30;;;;;;;;;9.25;8.00;;;;;10.33;81.42;102040.56;5038519;28;45223;-75
2021/12/13 08:21:00;;;;;;;;;21.50;16.75;;;;;10.31;81.41;102042.22;5038863;28;46349;-73
2021/12/13 08:23:38;;;;;;;;;16.25;14.50;;;;;10.09;81.61;102011.72;5039035;28;45464;-74
2021/12/13 08:26:08;;;;;;;;;20.25;16.75;;;;;10.32;80.54;102045.75;5039581;28;45603;-78
2021/12/13 08:28:45;;;;;;;;;18.75;14.75;;;;;10.35;81.24;102045.88;5038106;28;45352;-78
2021/12/13 08:31:22;;;;;;;;;12.50;12.50;;;;;10.36;81.08;102048.53;5035838;28;46694;-78
2021/12/13 08:33:52;;;;;;;;;21.25;18.75;;;;;10.30;80.90;102023.75;5036918;28;46012;-77
2021/12/13 08:36:32;;;;;;;;;19.50;11.75;;;;;10.41;80.46;102038.13;5037715;28;45491;-77
2021/12/13 08:39:16;;;;;;;;;12.25;12.25;;;;;10.17;81.78;102006.69;5038657;28;45820;-75
2021/12/13 08:41:46;;;;;;;;;14.50;13.25;;;;;10.34;81.45;102037.06;5038472;28;46382;-77
2021/12/13 08:44:12;;;;;;;;;15.25;13.25;;;;;10.32;81.64;102043.13;5036906;28;45467;-77
2021/12/13 08:46:46;;;;;;;;;15.50;15.00;;;;;10.30;81.11;102047.47;5038515;28;45290;-77
2021/12/13 08:49:23;;;;;;;;;11.50;11.50;;;;;10.17;81.00;102049.69;5037866;28;45444;-77
2021/12/13 08:51:57;;;;;;;;;11.25;11.25;;;;;10.14;81.92;102048.69;5038250;28;48652;-78
2021/12/13 08:54:39;;;;;;;;;14.00;12.50;;;;;10.10;82.07;102054.72;5038647;28;45365;-78
2021/12/13 08:57:10;;;;;;;;;12.50;9.50;;;;;9.99;82.19;102046.50;5039604;28;45266;-78
2021/12/13 08:59:49;;;;;;;;;9.00;9.00;;;;;9.91;82.21;102050.63;5041076;28;45502;-75
2021/12/13 09:02:16;;;;;;;;;9.00;9.00;;;;;9.99;82.03;102060.56;5041126;28;45736;-78
2021/12/13 09:04:55;;;;;;;;;8.75;8.75;;;;;9.93;82.32;102048.94;5040899;28;46150;-79
2021/12/13 09:07:24;;;;;;;;;14.00;8.25;;;;;9.97;82.11;102041.19;5043390;28;45416;-81
2021/12/13 09:09:49;;;;;;;;;14.50;9.25;;;;;9.94;80.53;102043.72;5036079;28;45508;-77
2021/12/13 09:12:37;;;;;;;;;8.00;8.00;;;;;10.05;81.20;102061.59;5038379;28;47869;-77
2021/12/13 09:15:26;;;;;;;;;9.50;9.50;;;;;10.14;80.45;102059.22;5035729;28;45476;-81
2021/12/13 09:17:53;;;;;;;;;9.75;9.00;;;;;10.16;80.62;102066.34;5035101;28;45476;-76
2021/12/13 09:20:31;;;;;;;;;8.25;8.00;;;;;10.13;79.89;102054.81;5036398;28;45350;-77
2021/12/13 09:23:20;;;;;;;;;8.25;8.25;;;;;10.13;78.73;102047.81;5035854;28;45453;-79
2021/12/13 09:25:50;;;;;;;;;7.00;7.00;;;;;10.13;79.24;102070.63;5036205;28;45501;-75
2021/12/13 09:28:35;;;;;;;;;6.00;6.00;;;;;10.03;78.64;102042.22;5036337;28;45385;-75
2021/12/13 09:31:18;;;;;;;;;13.00;12.00;;;;;10.17;78.39;102076.03;5034681;28;46285;-76
2021/12/13 09:33:50;;;;;;;;;9.75;8.00;;;;;10.06;79.07;102084.47;5031458;28;45429;-76
2021/12/13 09:36:20;;;;;;;;;10.50;8.25;;;;;10.01;79.81;102076.41;5028683;28;45610;-77
2021/12/13 09:38:55;;;;;;;;;8.25;8.25;;;;;9.97;79.12;102079.81;5037079;28;45461;-78
2021/12/13 09:41:30;;;;;;;;;9.25;9.25;;;;;9.74;79.51;102026.41;5039711;28;45773;-76
2021/12/13 09:44:14;;;;;;;;;10.50;8.75;;;;;10.02;78.88;102072.03;5036835;28;46360;-77
2021/12/13 09:46:52;;;;;;;;;12.25;8.50;;;;;10.07;78.94;102087.13;5036467;28;45456;-77
2021/12/13 09:49:26;;;;;;;;;6.75;6.75;;;;;9.90;78.25;102067.28;5038103;28;45228;-80
2021/12/13 09:52:27;;;;;;;;;8.00;7.25;;;;;9.99;78.94;102075.47;5033948;28;45336;-76
2021/12/13 09:54:54;;;;;;;;;1.50;1.50;;;;;9.96;76.89;102078.00;4975500;28;46160;-77
2021/12/13 09:57:33;;;;;;;;;1.75;1.75;;;;;9.94;77.55;102082.31;4976587;28;45483;-74
2021/12/13 10:00:00;;;;;;;;;2.00;2.00;;;;;9.86;77.85;102065.38;4976566;28;45449;-78
2021/12/13 10:02:35;;;;;;;;;3.00;3.00;;;;;9.76;77.76;102058.03;4976108;28;45523;-77
2021/12/13 10:05:07;;;;;;;;;4.00;2.25;;;;;9.86;77.95;102081.16;4981997;28;46200;-77
2021/12/13 10:07:37;;;;;;;;;2.75;2.75;;;;;9.97;77.58;102087.69;4978688;28;45270;-79
2021/12/13 10:10:20;;;;;;;;;1.25;1.25;;;;;9.98;75.61;102086.84;4976232;28;45461;-76
2021/12/13 10:12:52;;;;;;;;;1.00;1.00;;;;;9.79;76.60;102092.38;4976341;28;45512;-76
2021/12/13 10:15:37;;;;;;;;;2.50;2.50;;;;;9.79;76.98;102085.38;4976885;28;46365;-77
2021/12/13 10:18:13;;;;;;;;;3.00;2.25;;;;;9.84;75.80;102083.75;4976946;28;45332;-78
2021/12/13 10:20:43;;;;;;;;;2.00;2.00;;;;;9.59;75.63;102081.22;4975984;28;45490;-78
2021/12/13 10:23:13;;;;;;;;;2.50;2.50;;;;;9.18;76.58;102030.72;4973580;28;45429;-77
2021/12/13 10:25:45;;;;;;;;;3.00;3.00;;;;;9.55;76.40;102088.09;4976032;28;45507;-78
2021/12/13 10:28:17;;;;;;;;;2.50;2.50;;;;;9.39;76.54;102077.88;4976321;28;45285;-75
2021/12/13 10:30:58;;;;;;;;;3.75;3.75;;;;;8.76;77.62;101948.72;5013268;28;45438;-76
2021/12/13 10:33:25;;;;;;;;;7.00;3.75;;;;;9.04;77.34;101968.94;5037599;28;45528;-78
2021/12/13 10:35:53;;;;;;;;;6.00;3.50;;;;;8.91;76.83;101949.22;5037079;28;47009;-76
2021/12/13 10:38:23;;;;;;;;;6.25;5.50;;;;;9.54;77.21;102072.25;5048670;28;45298;-77
2021/12/13 10:40:57;;;;;;;;;3.00;3.00;;;;;9.46;77.25;102056.22;5057692;28;45270;-79
2021/12/13 10:43:28;;;;;;;;;3.00;2.75;;;;;9.32;76.93;102025.94;5040856;28;45241;-77
2021/12/13 10:45:59;;;;;;;;;3.25;3.25;;;;;9.38;77.29;102061.22;5037787;28;46229;-78
2021/12/13 10:48:29;;;;;;;;;3.50;3.50;;;;;9.44;77.53;102060.53;5037973;28;45233;-81
2021/12/13 10:51:08;;;;;;;;;7.25;6.00;;;;;9.03;77.06;101968.03;5038259;28;45362;-78
2021/12/13 10:53:37;;;;;;;;;6.25;3.25;;;;;9.47;76.87;102039.59;5034371;28;45403;-79
2021/12/13 10:56:21;;;;;;;;;3.75;2.25;;;;;9.55;76.66;102053.88;5035518;28;46412;-77
2021/12/13 10:58:50;;;;;;;;;4.00;3.00;;;;;9.56;76.89;102066.19;5035618;28;45417;-76
2021/12/13 11:01:30;;;;;;;;;4.00;4.00;;;;;9.40;77.39;102063.91;5036146;28;45760;-76
2021/12/13 11:04:00;;;;;;;;;7.75;7.00;;;;;9.30;77.19;102035.50;5037559;28;45480;-76
2021/12/13 11:06:28;;;;;;;;;4.00;4.00;;;;;9.41;77.37;102057.81;5037603;28;45241;-73
2021/12/13 11:08:53;;;;;;;;;6.00;6.00;;;;;9.33;77.70;102025.09;5037177;28;46309;-75
2021/12/13 11:11:30;;;;;;;;;6.50;3.75;;;;;9.56;77.15;102060.03;5037439;28;45217;-75
2021/12/13 11:14:00;;;;;;;;;7.00;7.00;;;;;9.57;77.32;102065.34;5037081;28;45520;-76
2021/12/13 11:16:34;;;;;;;;;7.75;6.00;;;;;9.42;76.56;102067.50;5037081;28;46314;-74
2021/12/13 11:19:02;;;;;;;;;5.75;5.75;;;;;9.31;76.94;102048.72;5036713;28;45565;-74
2021/12/13 11:21:35;;;;;;;;;7.25;5.00;;;;;9.36;76.97;102040.97;5036074;28;45411;-75
2021/12/13 11:24:04;;;;;;;;;3.00;3.00;;;;;9.40;76.57;102046.41;5037478;28;45650;-74
2021/12/13 11:26:32;;;;;;;;;4.00;4.00;;;;;9.55;76.94;102068.78;5037052;28;45362;-75
2021/12/13 11:29:01;;;;;;;;;4.50;3.75;;;;;9.59;76.45;102076.84;5037407;28;45386;-74
2021/12/13 11:31:29;;;;;;;;;6.00;6.00;;;;;9.65;76.39;102071.75;5037245;28;45374;-73
2021/12/13 11:34:04;;;;;;;;;5.50;5.50;;;;;9.50;76.95;102066.00;5037724;28;45345;-74
2021/12/13 11:36:45;;;;;;;;;8.75;5.50;;;;;9.48;76.95;102051.88;5017889;28;46585;-73
2021/12/13 11:39:31;;;;;;;;;3.50;3.50;;;;;9.50;77.60;102062.50;5045267;28;45347;-72
2021/12/13 11:42:18;;;;;;;;;7.00;7.00;;;;;9.60;77.06;102054.06;5036568;28;45422;-75
2021/12/13 11:45:31;;;;;;;;;13.25;9.75;;;;;9.57;77.42;102060.09;5036682;28;45220;-76
2021/12/13 11:48:32;;;;;;;;;8.00;8.00;;;;;9.64;77.12;102055.91;5014428;28;45357;-78
2021/12/13 11:51:27;;;;;;;;;9.50;9.50;;;;;9.30;76.77;102002.22;4973623;28;45500;-74
2021/12/13 11:54:11;;;;;;;;;9.50;9.50;;;;;9.63;76.93;102038.34;4936589;28;45522;-75
2021/12/13 11:57:01;;;;;;;;;14.00;14.00;;;;;9.76;77.19;102050.16;4937446;28;45514;-76
2021/12/13 11:59:51;;;;;;;;;11.25;11.25;;;;;9.81;76.67;102051.19;4936849;28;45413;-76
2021/12/13 12:02:35;;;;;;;;;7.50;7.50;;;;;9.80;76.39;102039.78;4966083;28;45440;-75
2021/12/13 12:05:37;;;;;;;;;7.50;6.75;;;;;9.66;76.42;102035.81;4958603;28;45521;-75